createdAt,value
2022-10-03T00:01:43.580Z,13.10
2022-10-03T00:04:31.607Z,8.03
2022-10-03T00:07:26.461Z,11.77
2022-10-03T00:10:02.225Z,10.57
2022-10-03T00:12:56.525Z,8.20
2022-10-03T00:15:30.011Z,14.50
2022-10-03T00:17:59.910Z,15.13
2022-10-03T00:20:49.951Z,11.57
2022-10-03T00:23:29.138Z,9.23
2022-10-03T00:26:27.622Z,15.47
2022-10-03T00:29:21.819Z,12.50
2022-10-03T00:32:03.189Z,15.00
2022-10-03T00:34:48.140Z,14.57
2022-10-03T00:37:14.604Z,11.80
2022-10-03T00:40:11.966Z,14.17
2022-10-03T00:42:52.452Z,13.50
2022-10-03T00:45:27.753Z,13.87
2022-10-03T00:48:08.521Z,18.83
2022-10-03T00:50:37.905Z,12.20
2022-10-03T00:53:17.099Z,11.67
2022-10-03T00:56:01.180Z,14.27
2022-10-03T00:59:06.270Z,12.47
2022-10-03T01:01:59.108Z,15.97
2022-10-03T01:05:00.863Z,16.33
2022-10-03T01:07:52.983Z,12.43
2022-10-03T01:10:31.606Z,15.80
2022-10-03T01:13:32.681Z,19.87
2022-10-03T01:16:29.595Z,12.87
2022-10-03T01:19:26.504Z,14.37
2022-10-03T01:22:01.728Z,12.77
2022-10-03T01:24:43.746Z,16.43
2022-10-03T01:28:07.735Z,16.43
2022-10-03T01:30:50.184Z,15.17
2022-10-03T01:33:27.764Z,19.67
2022-10-03T01:36:03.774Z,17.17
2022-10-03T01:38:33.756Z,11.53
2022-10-03T01:41:07.066Z,20.47
2022-10-03T01:43:50.496Z,14.93
2022-10-03T01:46:23.435Z,20.10
2022-10-03T01:49:28.653Z,19.63
2022-10-03T01:52:03.687Z,14.63
2022-10-03T01:54:51.670Z,18.67
2022-10-03T01:57:42.172Z,21.43
2022-10-03T02:00:15.002Z,19.27
2022-10-03T02:03:08.866Z,16.03
2022-10-03T02:05:35.721Z,19.53
2022-10-03T02:08:11.553Z,17.87
2022-10-03T02:10:46.171Z,19.33
2022-10-03T02:13:37.323Z,21.73
2022-10-03T02:16:22.928Z,18.70
2022-10-03T02:18:56.017Z,19.00
2022-10-03T02:21:25.148Z,22.60
2022-10-03T02:24:16.231Z,18.43
2022-10-03T02:26:56.211Z,19.07
2022-10-03T02:29:39.983Z,19.30
2022-10-03T02:32:12.544Z,14.47
2022-10-03T02:34:45.170Z,21.50
2022-10-03T02:37:36.567Z,20.13
2022-10-03T02:40:24.428Z,16.40
2022-10-03T02:43:11.947Z,16.57
2022-10-03T02:46:16.357Z,18.93
2022-10-03T02:49:01.017Z,16.17
2022-10-03T02:51:39.935Z,15.60
2022-10-03T02:54:23.096Z,18.03
2022-10-03T02:57:34.010Z,17.47
2022-10-03T03:00:06.751Z,12.80
2022-10-03T03:03:01.622Z,19.40
2022-10-03T03:05:33.172Z,20.47
2022-10-03T03:08:02.573Z,21.30
2022-10-03T03:11:06.690Z,14.07
2022-10-03T03:13:54.933Z,19.93
2022-10-03T03:16:47.873Z,17.83
2022-10-03T03:19:27.518Z,24.87
2022-10-03T03:21:57.045Z,19.63
2022-10-03T03:24:29.469Z,13.77
2022-10-03T03:27:09.530Z,19.50
2022-10-03T03:29:43.683Z,18.50
2022-10-03T03:32:13.672Z,19.50
2022-10-03T03:35:26.604Z,18.90
2022-10-03T03:38:11.423Z,19.57
2022-10-03T03:41:30.360Z,18.33
2022-10-03T03:44:09.096Z,18.33
2022-10-03T03:46:51.031Z,19.77
2022-10-03T03:49:23.458Z,21.30
2022-10-03T03:52:32.794Z,13.43
2022-10-03T03:55:57.707Z,21.80
2022-10-03T03:58:26.990Z,15.03
2022-10-03T04:01:15.177Z,17.13
2022-10-03T04:04:14.162Z,21.67
2022-10-03T04:06:51.191Z,14.50
2022-10-03T04:09:39.462Z,13.83
2022-10-03T04:12:24.596Z,18.67
2022-10-03T04:15:09.546Z,14.83
2022-10-03T04:17:54.486Z,20.43
2022-10-03T04:20:48.950Z,22.30
2022-10-03T04:23:27.790Z,20.67
2022-10-03T04:26:15.745Z,17.73
2022-10-03T04:28:55.391Z,18.73
2022-10-03T04:31:34.296Z,19.07
2022-10-03T04:34:25.249Z,17.90
2022-10-03T04:37:28.518Z,16.97
2022-10-03T04:40:10.279Z,16.57
2022-10-03T04:42:40.988Z,18.70
2022-10-03T04:45:28.842Z,20.33
2022-10-03T04:48:33.389Z,15.97
2022-10-03T04:51:21.120Z,17.83
2022-10-03T04:54:00.586Z,19.87
2022-10-03T04:56:27.105Z,20.17
2022-10-03T04:59:04.931Z,13.27
2022-10-03T05:01:45.541Z,18.67
2022-10-03T05:04:38.550Z,19.33
2022-10-03T05:07:14.674Z,21.20
2022-10-03T05:10:09.198Z,16.10
2022-10-03T05:12:54.057Z,19.43
2022-10-03T05:15:27.903Z,21.03
2022-10-03T05:18:15.756Z,20.30
2022-10-03T05:21:05.392Z,16.63
2022-10-03T05:23:41.948Z,16.17
2022-10-03T05:26:44.197Z,22.87
2022-10-03T05:29:10.783Z,22.90
2022-10-03T05:31:49.550Z,18.83
2022-10-03T05:34:28.690Z,13.70
2022-10-03T05:37:16.332Z,14.70
2022-10-03T05:40:04.577Z,20.73
2022-10-03T05:42:42.898Z,16.47
2022-10-03T05:45:12.185Z,18.07
2022-10-03T05:48:17.728Z,20.40
2022-10-03T05:51:09.121Z,23.93
2022-10-03T05:53:54.335Z,19.70
2022-10-03T05:56:40.149Z,22.60
2022-10-03T05:59:25.607Z,16.63
2022-10-03T06:02:29.777Z,18.00
2022-10-03T06:05:20.916Z,18.73
2022-10-03T06:08:02.549Z,17.23
2022-10-03T06:10:35.201Z,13.80
2022-10-03T06:13:20.468Z,19.87
2022-10-03T06:16:00.687Z,18.73
2022-10-03T06:18:45.820Z,14.60
2022-10-03T06:21:43.289Z,13.20
2022-10-03T06:24:34.698Z,19.63
2022-10-03T06:27:33.916Z,15.60
2022-10-03T06:30:28.233Z,14.60
2022-10-03T06:33:25.730Z,19.23
2022-10-03T06:36:29.772Z,23.37
2022-10-03T06:39:38.184Z,15.87
2022-10-03T06:42:29.472Z,18.83
2022-10-03T06:45:33.316Z,16.20
2022-10-03T06:48:08.882Z,22.10
2022-10-03T06:50:54.880Z,19.07
2022-10-03T06:54:00.930Z,18.23
2022-10-03T06:56:31.776Z,24.07
2022-10-03T06:59:10.230Z,21.43
2022-10-03T07:01:40.421Z,23.10
2022-10-03T07:04:26.369Z,18.43
2022-10-03T07:07:22.144Z,16.83
2022-10-03T07:10:20.412Z,19.87
2022-10-03T07:13:18.458Z,20.30
2022-10-03T07:16:26.139Z,21.53
2022-10-03T07:19:29.513Z,16.60
2022-10-03T07:22:33.877Z,22.37
2022-10-03T07:25:10.998Z,18.53
2022-10-03T07:28:42.742Z,22.23
2022-10-03T07:31:46.728Z,23.13
2022-10-03T07:34:44.035Z,24.23
2022-10-03T07:38:07.193Z,19.10
2022-10-03T07:40:52.584Z,22.50
2022-10-03T07:43:45.336Z,21.83
2022-10-03T07:49:54.446Z,21.17
2022-10-03T07:52:57.513Z,20.13
2022-10-03T07:55:45.804Z,26.07
2022-10-03T07:58:34.951Z,24.93
2022-10-03T08:01:16.478Z,26.13
2022-10-03T08:04:35.805Z,23.17
2022-10-03T08:07:02.333Z,20.17
2022-10-03T08:09:45.579Z,18.10
2022-10-03T08:12:40.486Z,20.90
2022-10-03T08:15:30.701Z,34.67
2022-10-03T08:18:21.044Z,20.10
2022-10-03T08:20:55.809Z,17.17
2022-10-03T08:24:00.533Z,16.30
2022-10-03T08:30:32.364Z,24.37
2022-10-03T08:33:22.015Z,24.83
2022-10-03T08:36:14.014Z,21.37
2022-10-03T08:38:46.596Z,19.63
2022-10-03T08:41:51.780Z,24.40
2022-10-03T08:44:56.059Z,24.70
2022-10-03T08:47:37.652Z,16.47
2022-10-03T08:50:34.826Z,24.17
2022-10-03T08:53:22.366Z,16.70
2022-10-03T08:56:22.878Z,18.37
2022-10-03T08:59:15.217Z,19.90
2022-10-03T09:01:42.306Z,13.60
2022-10-03T09:04:15.157Z,15.60
2022-10-03T09:10:07.296Z,14.97
2022-10-03T09:13:04.422Z,19.17
2022-10-03T09:15:43.341Z,16.03
2022-10-03T09:18:41.947Z,18.60
2022-10-03T09:21:37.150Z,22.50
2022-10-03T09:24:10.549Z,22.87
2022-10-03T09:26:47.869Z,23.23
2022-10-03T09:29:33.464Z,17.90
2022-10-03T09:32:03.175Z,17.73
2022-10-03T09:34:44.641Z,17.80
2022-10-03T09:37:20.109Z,16.23
2022-10-03T09:40:17.037Z,11.80
2022-10-03T09:42:49.843Z,16.30
2022-10-03T09:45:37.275Z,14.77
2022-10-03T09:48:32.828Z,14.47
2022-10-03T09:51:17.596Z,19.80
2022-10-03T09:54:16.741Z,16.27
2022-10-03T09:56:55.262Z,17.10
2022-10-03T09:59:42.060Z,17.00
2022-10-03T10:02:36.687Z,17.30
2022-10-03T10:05:09.452Z,18.60
2022-10-03T10:08:14.220Z,18.77
2022-10-03T10:10:40.698Z,15.37
2022-10-03T10:14:06.639Z,13.27
2022-10-03T10:17:29.980Z,15.47
2022-10-03T10:19:56.573Z,17.97
2022-10-03T10:22:41.795Z,14.00
2022-10-03T10:25:14.617Z,17.73
2022-10-03T10:28:18.305Z,12.13
2022-10-03T10:31:22.376Z,13.47
2022-10-03T10:34:22.568Z,9.77
2022-10-03T10:37:27.268Z,28.57
2022-10-03T10:39:59.767Z,14.33
2022-10-03T10:43:17.543Z,9.80
2022-10-03T10:46:06.962Z,15.57
2022-10-03T10:49:02.815Z,8.83
2022-10-03T10:52:07.902Z,10.27
2022-10-03T10:55:03.674Z,10.10
2022-10-03T10:58:07.898Z,12.10
2022-10-03T11:00:53.499Z,11.10
2022-10-03T11:04:03.974Z,10.50
2022-10-03T11:06:53.616Z,15.13
2022-10-03T11:09:28.954Z,9.70
2022-10-03T11:12:23.908Z,9.13
2022-10-03T11:14:59.623Z,11.97
2022-10-03T11:17:31.972Z,14.07
2022-10-03T11:19:58.479Z,8.87
2022-10-03T11:23:04.872Z,10.37
2022-10-03T11:26:03.733Z,7.97
2022-10-03T11:28:30.441Z,7.70
2022-10-03T11:31:15.108Z,9.80
2022-10-03T11:34:03.017Z,12.40
2022-10-03T11:37:14.478Z,8.40
2022-10-03T11:39:59.502Z,10.13
2022-10-03T11:42:32.864Z,7.33
2022-10-03T11:45:01.650Z,8.77
2022-10-03T11:47:40.818Z,9.27
2022-10-03T11:50:29.623Z,7.67
2022-10-03T11:53:18.500Z,9.33
2022-10-03T11:55:54.129Z,7.20
2022-10-03T11:58:51.161Z,7.87
2022-10-03T12:01:24.487Z,4.20
2022-10-03T12:03:57.570Z,5.50
2022-10-03T12:06:56.389Z,5.57
2022-10-03T12:09:38.485Z,8.33
2022-10-03T12:12:36.735Z,4.83
2022-10-03T12:15:35.756Z,6.20
2022-10-03T12:18:42.875Z,8.63
2022-10-03T12:21:41.542Z,4.77
2022-10-03T12:24:27.732Z,6.50
2022-10-03T12:27:05.368Z,9.80
2022-10-03T12:29:35.298Z,8.53
2022-10-03T12:32:26.764Z,5.93
2022-10-03T12:34:56.304Z,7.13
2022-10-03T12:37:43.623Z,6.30
2022-10-03T12:40:16.633Z,6.00
2022-10-03T12:43:08.119Z,5.80
2022-10-03T12:46:01.478Z,8.47
2022-10-03T12:48:44.173Z,6.67
2022-10-03T12:51:23.304Z,8.03
2022-10-03T12:54:03.112Z,5.77
2022-10-03T12:57:32.017Z,5.57
2022-10-03T13:00:14.693Z,6.30
2022-10-03T13:02:43.569Z,4.43
2022-10-03T13:05:53.475Z,4.57
2022-10-03T13:08:55.515Z,5.63
2022-10-03T13:11:40.690Z,6.70
2022-10-03T13:14:19.209Z,8.17
2022-10-03T13:17:19.233Z,7.93
2022-10-03T13:19:51.796Z,5.20
2022-10-03T13:22:34.410Z,7.80
2022-10-03T13:25:06.048Z,6.03
2022-10-03T13:28:00.906Z,7.83
2022-10-03T13:30:33.229Z,7.20
2022-10-03T13:33:03.637Z,8.40
2022-10-03T13:35:58.997Z,6.57
2022-10-03T13:38:59.956Z,10.53
2022-10-03T13:41:35.305Z,5.87
2022-10-03T13:44:13.989Z,7.70
2022-10-03T13:46:45.135Z,7.57
2022-10-03T13:49:19.090Z,9.93
2022-10-03T13:51:52.884Z,4.10
2022-10-03T13:54:47.112Z,6.70
2022-10-03T13:57:45.068Z,7.60
2022-10-03T14:00:15.063Z,5.63
2022-10-03T14:03:18.184Z,3.90
2022-10-03T14:05:57.316Z,7.97
2022-10-03T14:08:29.726Z,7.70
2022-10-03T14:11:05.215Z,9.80
2022-10-03T14:13:53.081Z,5.57
2022-10-03T14:16:22.753Z,5.20
2022-10-03T14:19:07.976Z,7.43
2022-10-03T14:21:49.180Z,3.73
2022-10-03T14:24:27.461Z,8.77
2022-10-03T14:26:56.711Z,6.87
2022-10-03T14:29:38.632Z,8.20
2022-10-03T14:32:46.786Z,8.27
2022-10-03T14:35:38.043Z,4.37
2022-10-03T14:38:58.272Z,5.83
2022-10-03T14:41:46.060Z,8.33
2022-10-03T14:44:36.925Z,6.43
2022-10-03T14:47:08.538Z,4.33
2022-10-03T14:49:57.799Z,7.67
2022-10-03T14:52:36.451Z,7.57
2022-10-03T14:55:18.361Z,9.83
2022-10-03T14:58:11.132Z,18.87
2022-10-03T15:00:43.739Z,4.10
2022-10-03T15:03:16.324Z,9.27
2022-10-03T15:06:01.774Z,4.60
2022-10-03T15:08:53.057Z,6.83
2022-10-03T15:11:47.904Z,12.10
2022-10-03T15:14:14.850Z,9.53
2022-10-03T15:16:55.486Z,5.80
2022-10-03T15:19:29.055Z,5.33
2022-10-03T15:22:01.751Z,10.17
2022-10-03T15:24:31.535Z,6.10
2022-10-03T15:27:02.498Z,4.13
2022-10-03T15:29:30.698Z,4.00
2022-10-03T15:31:58.189Z,7.90
2022-10-03T15:34:33.467Z,6.63
2022-10-03T15:37:07.197Z,4.97
2022-10-03T15:39:43.680Z,4.73
2022-10-03T15:42:10.425Z,5.50
2022-10-03T15:44:41.467Z,6.80
2022-10-03T15:47:15.359Z,7.73
2022-10-03T15:49:47.036Z,6.43
2022-10-03T15:52:33.483Z,4.20
2022-10-03T15:55:11.614Z,7.67
2022-10-03T15:57:46.754Z,5.93
2022-10-03T16:00:32.944Z,9.10
2022-10-03T16:03:16.474Z,3.43
2022-10-03T16:06:02.780Z,9.53
2022-10-03T16:08:31.926Z,7.67
2022-10-03T16:11:09.284Z,5.90
2022-10-03T16:13:51.712Z,6.10
2022-10-03T16:16:19.492Z,7.33
2022-10-03T16:18:49.016Z,8.57
2022-10-03T16:21:41.435Z,4.37
2022-10-03T16:24:19.000Z,5.40
2022-10-03T16:26:52.776Z,4.50
2022-10-03T16:29:23.245Z,5.50
2022-10-03T16:31:56.505Z,3.43
2022-10-03T16:34:25.673Z,4.10
2022-10-03T16:36:53.473Z,4.43
2022-10-03T16:39:30.386Z,4.87
2022-10-03T16:41:57.196Z,6.03
2022-10-03T16:44:43.689Z,5.73
2022-10-03T16:47:11.849Z,3.80
2022-10-03T16:50:02.296Z,4.43
2022-10-03T16:52:34.708Z,8.13
2022-10-03T16:55:06.241Z,5.47
2022-10-03T16:58:00.705Z,4.43
2022-10-03T17:01:22.536Z,9.57
2022-10-03T17:03:55.481Z,9.03
2022-10-03T17:06:31.227Z,10.07
2022-10-03T17:09:02.065Z,9.07
2022-10-03T17:11:29.519Z,10.27
2022-10-03T17:14:00.359Z,9.57
2022-10-03T17:16:39.599Z,12.90
2022-10-03T17:19:08.607Z,15.97
2022-10-03T17:21:38.772Z,18.20
2022-10-03T17:24:12.925Z,15.80
2022-10-03T17:26:46.098Z,16.37
2022-10-03T17:29:19.120Z,20.33
2022-10-03T17:31:49.466Z,16.40
2022-10-03T17:34:18.827Z,17.17
2022-10-03T17:37:03.963Z,15.70
2022-10-03T17:40:02.284Z,18.37
2022-10-03T17:42:41.906Z,14.80
2022-10-03T17:45:30.591Z,14.67
2022-10-03T17:48:05.159Z,11.63
2022-10-03T17:50:53.496Z,15.73
2022-10-03T17:53:27.977Z,13.43
2022-10-03T17:55:58.834Z,16.87
2022-10-03T17:58:27.893Z,11.00
2022-10-03T18:01:01.274Z,10.57
2022-10-03T18:03:34.086Z,11.17
2022-10-03T18:06:33.407Z,16.27
2022-10-03T18:09:02.196Z,12.03
2022-10-03T18:11:29.925Z,10.33
2022-10-03T18:14:13.191Z,9.13
2022-10-03T18:16:54.743Z,10.40
2022-10-03T18:19:37.137Z,11.03
2022-10-03T18:22:17.539Z,10.73
2022-10-03T18:24:52.008Z,9.23
2022-10-03T18:27:21.748Z,10.20
2022-10-03T18:30:00.005Z,11.40
2022-10-03T18:32:29.969Z,12.23
2022-10-03T18:35:07.020Z,9.90
2022-10-03T18:37:50.066Z,14.10
2022-10-03T18:40:21.131Z,17.13
2022-10-03T18:42:50.486Z,12.03
2022-10-03T18:45:44.631Z,13.40
2022-10-03T18:48:21.156Z,12.27
2022-10-03T18:50:56.709Z,14.23
2022-10-03T18:53:36.717Z,16.53
2022-10-03T18:56:10.283Z,12.80
2022-10-03T18:58:45.226Z,15.03
2022-10-03T19:01:57.816Z,13.47
2022-10-03T19:04:53.206Z,12.73
2022-10-03T19:07:25.821Z,15.07
2022-10-03T19:10:17.277Z,12.73
2022-10-03T19:12:47.324Z,11.37
2022-10-03T19:15:14.010Z,12.93
2022-10-03T19:17:55.783Z,17.03
2022-10-03T19:20:25.535Z,16.70
2022-10-03T19:23:18.871Z,13.33
2022-10-03T19:25:50.541Z,17.10
2022-10-03T19:28:27.579Z,14.93
2022-10-03T19:30:59.669Z,11.90
2022-10-03T19:33:27.887Z,13.43
2022-10-03T19:35:56.093Z,11.87
2022-10-03T19:38:28.616Z,14.90
2022-10-03T19:41:21.553Z,13.83
2022-10-03T19:43:50.191Z,11.17
2022-10-03T19:46:28.935Z,10.10
2022-10-03T19:48:58.537Z,15.17
2022-10-03T19:51:25.909Z,10.57
2022-10-03T19:53:54.580Z,11.27
2022-10-03T19:56:22.332Z,11.13
2022-10-03T19:59:02.851Z,15.43
2022-10-03T20:01:42.418Z,10.37
2022-10-03T20:04:09.112Z,8.70
2022-10-03T20:06:39.667Z,13.47
2022-10-03T20:09:09.930Z,7.60
2022-10-03T20:12:06.158Z,11.97
2022-10-03T20:14:38.140Z,9.97
2022-10-03T20:17:10.827Z,8.83
2022-10-03T20:19:55.844Z,12.73
2022-10-03T20:22:25.605Z,14.73
2022-10-03T20:24:52.314Z,9.30
2022-10-03T20:27:25.882Z,10.80
2022-10-03T20:30:01.738Z,9.47
2022-10-03T20:32:28.509Z,6.80
2022-10-03T20:34:58.493Z,8.90
2022-10-03T20:37:47.012Z,14.03
2022-10-03T20:40:31.180Z,11.43
2022-10-03T20:43:21.623Z,7.17
2022-10-03T20:46:04.093Z,12.60
2022-10-03T20:48:33.421Z,11.03
2022-10-03T20:51:01.660Z,11.87
2022-10-03T20:53:30.055Z,13.83
2022-10-03T20:55:59.648Z,29.37
2022-10-03T20:58:50.970Z,36.33
2022-10-03T21:01:28.927Z,33.00
2022-10-03T21:04:01.496Z,25.57
2022-10-03T21:06:32.067Z,37.90
2022-10-03T21:09:01.386Z,22.27
2022-10-03T21:11:29.315Z,21.10
2022-10-03T21:13:57.463Z,22.67
2022-10-03T21:16:34.442Z,17.83
2022-10-03T21:19:03.091Z,14.87
2022-10-03T21:21:42.341Z,19.77
2022-10-03T21:24:17.987Z,15.83
2022-10-03T21:26:47.725Z,10.43
2022-10-03T21:29:15.398Z,14.10
2022-10-03T21:31:54.828Z,11.90
2022-10-03T21:34:28.365Z,16.00
2022-10-03T21:37:06.606Z,14.37
2022-10-03T21:39:54.534Z,11.30
2022-10-03T21:42:23.840Z,17.60
2022-10-03T21:48:38.734Z,10.13
2022-10-03T21:51:34.040Z,10.37
2022-10-03T21:54:12.936Z,12.13
2022-10-03T21:56:42.438Z,11.23
2022-10-03T21:59:28.541Z,13.53
2022-10-03T22:02:01.762Z,11.10
2022-10-03T22:04:39.322Z,11.30
2022-10-03T22:07:05.741Z,11.43
2022-10-03T22:09:32.509Z,18.03
2022-10-03T22:12:03.240Z,12.07
2022-10-03T22:14:45.326Z,9.30
2022-10-03T22:17:33.734Z,8.13
2022-10-03T22:20:23.057Z,11.83
2022-10-03T22:23:05.730Z,9.30
2022-10-03T22:25:54.842Z,9.40
2022-10-03T22:28:29.324Z,12.70
2022-10-03T22:31:32.819Z,7.97
2022-10-03T22:34:14.623Z,9.50
2022-10-03T22:36:41.917Z,11.67
2022-10-03T22:39:14.939Z,8.67
2022-10-03T22:41:44.021Z,13.63
2022-10-03T22:44:11.906Z,7.37
2022-10-03T22:46:41.653Z,14.20
2022-10-03T22:49:15.705Z,10.20
2022-10-03T22:51:43.503Z,9.03
2022-10-03T22:54:13.547Z,10.37
2022-10-03T22:56:48.431Z,10.07
2022-10-03T22:59:47.181Z,8.17
2022-10-03T23:02:14.140Z,8.50
2022-10-03T23:04:48.400Z,9.20
2022-10-03T23:07:32.003Z,6.47
2022-10-03T23:10:10.816Z,8.57
2022-10-03T23:12:42.402Z,7.50
2022-10-03T23:15:10.418Z,12.37
2022-10-03T23:17:59.121Z,11.17
2022-10-03T23:20:51.007Z,7.83
2022-10-03T23:23:25.112Z,8.73
2022-10-03T23:25:58.495Z,14.47
2022-10-03T23:28:40.173Z,8.80
2022-10-03T23:31:06.649Z,7.30
2022-10-03T23:33:33.280Z,10.93
2022-10-03T23:36:17.049Z,8.10
2022-10-03T23:38:43.663Z,8.77
2022-10-03T23:41:13.608Z,8.43
2022-10-03T23:43:49.293Z,10.60
2022-10-03T23:46:20.622Z,8.10
2022-10-03T23:48:55.805Z,6.67
2022-10-03T23:51:26.870Z,7.60
2022-10-03T23:53:55.277Z,9.20
2022-10-03T23:56:21.659Z,9.70
2022-10-03T23:59:03.488Z,9.33
